KG-0001 weather

Jalal-Abad Airport
Jalal-Abad, Jalal-Abad Region, Kyrgyzstan

Public forecast

Using degrees Celsius for public forecast. Weather courtesy of forecast.io.

METAR (pilot weather report)

Closest report is Osh Airport, 21.8 nm (40.4 km) SSW. Retrieved 2019/04/25 13:30 UTC (0 seconds ago):

UCFO 251330Z 19001MPS 9999 -SHRA BKN040CB OVC083 09/07 Q1025 R12/1///95 NOSIG

TAF (pilot weather forecast)

Closest forecast is Osh Airport, 21.8 nm (40.4 km) SSW. Retrieved 2019/04/25 12:00 UTC (1 hour ago):

TAF UCFO 251048Z 2512/2612 17005MPS 5000 BR SCT005 BKN020CB TEMPO 2512/2518 27007G12MPS 0500 SHRA FG VV002 PROB40 TEMPO 2512/2518 TS TEMPO 2518/2524 1500 -SHRA BR BKN002 OVC015CB